createdAt,value
2023-03-27T05:00:28.975Z,71.70
2023-03-27T05:01:31.846Z,71.53
2023-03-27T05:02:30.074Z,73.39
2023-03-27T05:03:30.221Z,74.55
2023-03-27T05:04:30.194Z,75.36
2023-03-27T05:05:30.274Z,76.31
2023-03-27T05:06:30.312Z,75.70
2023-03-27T05:07:30.381Z,76.61
2023-03-27T05:08:30.445Z,75.80
2023-03-27T05:09:30.544Z,76.51
2023-03-27T05:10:30.613Z,75.19
2023-03-27T05:11:30.652Z,74.88
2023-03-27T05:12:30.706Z,74.28
2023-03-27T05:13:30.811Z,74.28
2023-03-27T05:14:30.832Z,74.18
2023-03-27T05:15:30.926Z,73.13
2023-03-27T05:16:30.930Z,73.63
2023-03-27T05:17:31.030Z,73.22
2023-03-27T05:18:31.046Z,72.72
2023-03-27T05:19:31.117Z,72.31
2023-03-27T05:20:31.206Z,72.41
2023-03-27T05:21:31.212Z,71.80
2023-03-27T05:22:31.325Z,71.91
2023-03-27T05:23:31.411Z,72.82
2023-03-27T05:24:31.470Z,73.19
2023-03-27T05:25:31.593Z,72.48
2023-03-27T05:26:31.599Z,72.58
2023-03-27T05:27:31.679Z,71.77
2023-03-27T05:28:31.734Z,71.88
2023-03-27T05:29:47.366Z,71.88
2023-03-27T05:30:31.958Z,72.17
2023-03-27T05:31:31.959Z,71.77
2023-03-27T05:32:32.045Z,71.47
2023-03-27T05:33:32.248Z,71.67
2023-03-27T05:34:32.179Z,70.96
2023-03-27T05:35:32.310Z,71.67
2023-03-27T05:36:32.322Z,71.06
2023-03-27T05:37:32.388Z,71.47
2023-03-27T05:38:32.460Z,71.16
2023-03-27T05:39:32.536Z,71.77
2023-03-27T05:40:32.648Z,71.57
2023-03-27T05:41:32.664Z,71.26
2023-03-27T05:42:32.738Z,71.16
2023-03-27T05:43:32.805Z,71.47
2023-03-27T05:44:32.904Z,71.16
2023-03-27T05:45:32.953Z,71.88
2023-03-27T05:46:33.004Z,71.26
2023-03-27T05:47:33.056Z,71.26
2023-03-27T05:48:33.112Z,71.06
2023-03-27T05:49:34.142Z,71.16
2023-03-27T05:50:33.288Z,71.06
2023-03-27T05:51:33.321Z,71.16
2023-03-27T05:52:33.394Z,70.04
2023-03-27T05:53:33.464Z,70.72
2023-03-27T05:56:20.434Z,71.88
2023-03-27T05:57:21.459Z,71.36
2023-03-27T05:58:21.506Z,71.16
2023-03-27T05:59:21.585Z,71.26
2023-03-27T06:00:21.645Z,71.26
2023-03-27T06:01:21.783Z,71.47
2023-03-27T06:02:21.878Z,71.36
2023-03-27T06:03:21.935Z,71.16
2023-03-27T06:04:21.863Z,70.86
2023-03-27T06:05:21.948Z,70.92
2023-03-27T06:06:22.050Z,70.76
2023-03-27T06:07:22.061Z,70.62
2023-03-27T06:08:22.131Z,70.72
2023-03-27T06:09:22.190Z,71.03
2023-03-27T06:10:22.250Z,70.96
2023-03-27T06:11:22.347Z,70.65
2023-03-27T06:12:22.383Z,70.72
2023-03-27T06:13:22.445Z,70.76
2023-03-27T06:14:22.511Z,70.96
2023-03-27T06:15:22.573Z,70.76
2023-03-27T06:16:22.761Z,70.72
2023-03-27T06:17:22.695Z,70.62
2023-03-27T06:18:22.768Z,70.52
2023-03-27T06:19:22.816Z,70.86
2023-03-27T06:20:22.875Z,70.96
2023-03-27T06:21:22.958Z,70.86
2023-03-27T06:22:22.979Z,70.62
2023-03-27T06:23:23.058Z,70.83
2023-03-27T06:24:23.116Z,70.92
2023-03-27T06:25:23.219Z,70.72
2023-03-27T06:26:23.277Z,70.83
2023-03-27T06:27:23.313Z,70.83
2023-03-27T06:28:23.341Z,70.42
2023-03-27T06:29:23.424Z,70.62
2023-03-27T06:30:23.503Z,70.83
2023-03-27T06:31:23.712Z,70.32
2023-03-27T06:32:24.124Z,70.72
2023-03-27T06:33:23.686Z,70.42
2023-03-27T06:34:23.746Z,70.72
2023-03-27T06:35:24.634Z,70.92
2023-03-27T06:36:24.004Z,70.83
2023-03-27T06:37:23.917Z,70.62
2023-03-27T06:38:23.978Z,70.92
2023-03-27T06:39:24.073Z,70.72
2023-03-27T06:40:24.088Z,70.42
2023-03-27T06:41:24.218Z,70.42
2023-03-27T06:42:24.237Z,70.72
2023-03-27T06:43:24.412Z,70.52
2023-03-27T06:44:24.358Z,70.92
2023-03-27T06:45:24.424Z,70.62
2023-03-27T06:46:27.658Z,70.62
2023-03-27T06:47:24.691Z,70.42
2023-03-27T06:48:24.655Z,70.21
2023-03-27T06:49:24.730Z,70.21
2023-03-27T06:50:24.743Z,70.52
2023-03-27T06:51:24.878Z,70.32
2023-03-27T06:52:24.835Z,70.72
2023-03-27T06:53:27.713Z,70.32
2023-03-27T06:54:24.943Z,70.32
2023-03-27T06:55:25.019Z,70.42
2023-03-27T06:56:25.112Z,70.52
2023-03-27T06:57:25.134Z,70.42
2023-03-27T06:58:25.212Z,70.42
2023-03-27T06:59:25.296Z,70.62
2023-03-27T07:00:25.304Z,70.32
2023-03-27T07:01:25.430Z,70.21
2023-03-27T07:02:25.431Z,69.91
2023-03-27T07:03:25.479Z,70.11
2023-03-27T07:04:25.538Z,70.01
2023-03-27T07:05:25.629Z,70.32
2023-03-27T07:06:25.701Z,70.11
2023-03-27T07:07:25.759Z,70.11
2023-03-27T07:11:19.076Z,69.98
2023-03-27T07:12:19.865Z,69.68
2023-03-27T07:13:19.901Z,69.98
2023-03-27T07:14:19.980Z,69.37
2023-03-27T07:15:20.355Z,69.37
2023-03-27T07:16:20.189Z,69.47
2023-03-27T07:17:20.237Z,69.68
2023-03-27T07:18:20.291Z,69.88
2023-03-27T07:19:20.391Z,69.57
2023-03-27T07:20:20.429Z,69.47
2023-03-27T07:21:20.505Z,69.78
2023-03-27T07:22:21.883Z,69.57
2023-03-27T07:23:20.658Z,69.47
2023-03-27T07:24:20.709Z,69.37
2023-03-27T07:25:21.512Z,69.37
2023-03-27T07:26:20.851Z,69.57
2023-03-27T07:27:20.925Z,69.37
2023-03-27T07:28:20.930Z,69.78
2023-03-27T07:29:20.997Z,69.37
2023-03-27T07:30:21.061Z,69.47
2023-03-27T07:31:35.026Z,69.47
2023-03-27T07:32:34.039Z,69.47
2023-03-27T07:33:21.495Z,69.17
2023-03-27T07:34:21.371Z,69.37
2023-03-27T07:35:21.426Z,69.57
2023-03-27T07:36:21.457Z,69.68
2023-03-27T07:37:21.552Z,69.78
2023-03-27T07:38:21.591Z,69.37
2023-03-27T07:39:21.638Z,70.79
2023-03-27T07:41:21.754Z,69.98
2023-03-27T07:42:21.787Z,69.47
2023-03-27T07:43:21.836Z,69.37
2023-03-27T07:44:21.893Z,69.27
2023-03-27T07:45:21.983Z,69.57
2023-03-27T07:46:22.148Z,69.47
2023-03-27T07:47:22.163Z,69.47
2023-03-27T07:48:22.157Z,69.27
2023-03-27T07:49:39.323Z,69.34
2023-03-27T07:50:22.271Z,69.13
2023-03-27T07:51:22.343Z,68.73
2023-03-27T07:52:22.413Z,69.03
2023-03-27T07:53:33.029Z,68.63
2023-03-27T07:54:22.580Z,68.73
2023-03-27T07:55:22.629Z,68.83
2023-03-27T07:56:22.701Z,69.03
2023-03-27T07:57:22.849Z,68.93
2023-03-27T07:58:23.091Z,68.63
2023-03-27T07:59:22.929Z,68.93
2023-03-27T08:00:23.064Z,68.73
2023-03-27T08:01:23.056Z,68.83
2023-03-27T08:02:23.122Z,68.43
2023-03-27T08:05:11.447Z,68.83
2023-03-27T08:06:12.228Z,68.32
2023-03-27T08:07:12.313Z,68.32
2023-03-27T08:08:12.399Z,68.32
2023-03-27T08:09:12.406Z,68.23
2023-03-27T08:10:12.464Z,68.32
2023-03-27T08:11:23.182Z,68.63
2023-03-27T08:12:12.580Z,69.03
2023-03-27T08:13:12.681Z,66.97
2023-03-27T08:14:12.716Z,69.17
2023-03-27T08:15:12.753Z,67.05
2023-03-27T08:16:12.859Z,70.49
2023-03-27T08:17:16.243Z,76.46
2023-03-27T08:18:13.026Z,76.87
2023-03-27T08:19:13.026Z,77.31
2023-03-27T08:20:13.118Z,76.36
2023-03-27T08:21:13.146Z,77.07
2023-03-27T08:22:13.220Z,74.57
2023-03-27T08:23:13.760Z,73.76
2023-03-27T08:24:13.277Z,74.30
2023-03-27T08:25:13.368Z,73.96
2023-03-27T08:26:13.444Z,72.24
2023-03-27T08:27:13.526Z,65.88
2023-03-27T08:28:13.584Z,63.59
2023-03-27T08:29:13.633Z,65.06
2023-03-27T08:30:15.503Z,67.33
2023-03-27T08:31:13.771Z,68.04
2023-03-27T08:32:13.793Z,66.20
2023-03-27T08:33:13.830Z,65.30
2023-03-27T08:34:13.912Z,66.13
2023-03-27T08:35:14.004Z,69.52
2023-03-27T08:36:14.094Z,69.99
2023-03-27T08:37:14.155Z,68.15
2023-03-27T08:38:25.784Z,66.17
2023-03-27T08:39:14.317Z,64.28
2023-03-27T08:40:14.338Z,65.41
2023-03-27T08:41:14.419Z,67.55
2023-03-27T08:42:14.422Z,69.59
2023-03-27T08:43:14.491Z,67.51
2023-03-27T08:44:14.574Z,68.95
2023-03-27T08:45:14.629Z,64.83
2023-03-27T08:46:14.744Z,69.18
2023-03-27T08:47:14.748Z,70.62
2023-03-27T08:48:14.841Z,64.51
2023-03-27T08:49:14.912Z,58.75
2023-03-27T08:50:14.976Z,63.55
2023-03-27T08:51:15.060Z,61.36
2023-03-27T08:52:15.113Z,57.86
2023-03-27T08:53:15.196Z,58.07
2023-03-27T08:54:15.279Z,56.43
2023-03-27T08:55:15.303Z,51.05
2023-03-27T08:56:15.362Z,56.09
2023-03-27T08:57:15.563Z,58.44
2023-03-27T08:58:15.469Z,61.71
2023-03-27T08:59:17.357Z,64.93
2023-03-27T09:00:15.608Z,64.63
2023-03-27T09:01:15.698Z,66.59
2023-03-27T09:02:15.757Z,69.19
2023-03-27T09:03:15.939Z,69.79
2023-03-27T09:04:15.879Z,67.76
2023-03-27T09:05:15.951Z,63.68
2023-03-27T09:06:16.021Z,57.51
2023-03-27T09:07:16.084Z,49.89
2023-03-27T09:08:16.148Z,49.22
2023-03-27T09:09:16.224Z,48.63
2023-03-27T09:10:16.300Z,48.65
2023-03-27T09:11:16.356Z,51.03
2023-03-27T09:12:16.418Z,47.91
2023-03-27T09:13:16.498Z,43.23
2023-03-27T09:14:16.598Z,42.60
2023-03-27T09:15:16.659Z,44.03
2023-03-27T09:16:16.754Z,45.89
2023-03-27T09:17:16.794Z,49.88
2023-03-27T09:18:16.845Z,51.57
2023-03-27T09:19:16.950Z,57.71
2023-03-27T09:20:16.967Z,58.80
2023-03-27T09:21:17.019Z,61.18
2023-03-27T09:22:17.142Z,63.57
2023-03-27T09:23:19.125Z,65.31
2023-03-27T09:24:17.214Z,67.98
2023-03-27T09:25:17.239Z,68.02
2023-03-27T09:26:17.304Z,59.52
2023-03-27T09:27:17.365Z,62.58
2023-03-27T09:28:17.431Z,64.48
2023-03-27T09:29:20.047Z,61.33
2023-03-27T09:30:17.606Z,52.59
2023-03-27T09:31:17.625Z,49.96
2023-03-27T09:32:17.674Z,45.53
2023-03-27T09:33:18.014Z,44.09
2023-03-27T09:34:17.838Z,40.70
2023-03-27T09:35:17.891Z,43.92
2023-03-27T09:36:17.886Z,43.68
2023-03-27T09:37:18.147Z,42.38
2023-03-27T09:38:18.020Z,42.96
2023-03-27T09:39:18.122Z,41.71
2023-03-27T09:40:18.159Z,44.82
2023-03-27T09:41:18.211Z,50.78
2023-03-27T09:42:18.264Z,55.24
2023-03-27T09:43:18.374Z,55.74
2023-03-27T09:44:18.454Z,55.65
2023-03-27T09:45:18.460Z,61.49
2023-03-27T09:46:18.579Z,53.94
2023-03-27T09:47:18.611Z,49.78
2023-03-27T09:48:18.675Z,52.07
2023-03-27T09:49:18.764Z,56.26
2023-03-27T09:50:18.814Z,52.74
2023-03-27T09:51:18.872Z,50.40
2023-03-27T09:52:18.952Z,47.99
2023-03-27T09:53:19.055Z,49.05
2023-03-27T09:54:19.128Z,49.88
2023-03-27T09:55:19.222Z,55.11
2023-03-27T09:56:19.219Z,54.04
2023-03-27T09:57:19.306Z,57.85
2023-03-27T09:58:19.319Z,57.33
2023-03-27T09:59:19.400Z,59.72
2023-03-27T10:00:19.404Z,61.35
2023-03-27T10:01:19.528Z,62.08
2023-03-27T10:02:19.558Z,61.51
2023-03-27T10:03:19.690Z,62.65
2023-03-27T10:04:19.914Z,57.35
2023-03-27T10:05:19.751Z,52.76
2023-03-27T10:06:19.833Z,47.24
2023-03-27T10:09:13.852Z,50.15
2023-03-27T10:10:15.056Z,54.61
2023-03-27T10:11:14.975Z,53.94
2023-03-27T10:12:15.050Z,55.35
2023-03-27T10:13:15.148Z,48.69
2023-03-27T10:14:15.142Z,52.99
2023-03-27T10:15:15.250Z,53.47
2023-03-27T10:16:15.372Z,54.90
2023-03-27T10:17:15.357Z,59.58
2023-03-27T10:18:15.418Z,57.06
2023-03-27T10:19:15.436Z,59.39
2023-03-27T10:20:15.693Z,60.88
2023-03-27T10:21:15.566Z,56.70
2023-03-27T10:22:15.682Z,49.93
2023-03-27T10:23:15.694Z,50.90
2023-03-27T10:24:15.747Z,46.80
2023-03-27T10:25:15.829Z,45.96
2023-03-27T10:26:15.893Z,44.85
2023-03-27T10:27:15.940Z,45.70
2023-03-27T10:30:09.945Z,47.24
2023-03-27T10:31:11.027Z,45.73
2023-03-27T10:32:11.156Z,51.47
2023-03-27T10:33:11.157Z,52.99
2023-03-27T10:34:11.178Z,55.29
2023-03-27T10:35:11.240Z,56.57
2023-03-27T10:36:11.390Z,54.83
2023-03-27T10:37:11.353Z,54.41
2023-03-27T10:38:11.430Z,55.39
2023-03-27T10:39:11.525Z,58.06
2023-03-27T10:40:11.585Z,59.55
2023-03-27T10:41:11.677Z,59.35
2023-03-27T10:42:11.703Z,58.62
2023-03-27T10:43:12.798Z,57.12
2023-03-27T10:44:11.848Z,58.28
2023-03-27T10:45:11.913Z,59.74
2023-03-27T10:46:12.072Z,61.27
2023-03-27T10:47:12.030Z,59.89
2023-03-27T10:48:12.096Z,61.30
2023-03-27T10:49:12.174Z,60.85
2023-03-27T10:50:12.234Z,61.18
2023-03-27T10:51:12.333Z,62.08
2023-03-27T10:52:12.373Z,60.81
2023-03-27T10:53:12.611Z,58.25
2023-03-27T10:54:12.562Z,54.38
2023-03-27T10:55:12.637Z,55.57
2023-03-27T10:56:12.699Z,48.85
2023-03-27T10:57:12.800Z,50.58
2023-03-27T10:58:12.753Z,51.28
2023-03-27T10:59:12.825Z,52.19
2023-03-27T11:02:08.728Z,50.35
2023-03-27T11:03:07.907Z,53.24
2023-03-27T11:04:07.955Z,62.66
2023-03-27T11:05:07.956Z,62.85
2023-03-27T11:06:08.018Z,63.48
2023-03-27T11:07:08.110Z,64.54
2023-03-27T11:08:08.208Z,66.25
2023-03-27T11:09:08.198Z,65.71
2023-03-27T11:12:02.164Z,64.42
2023-03-27T11:13:03.254Z,62.20
2023-03-27T11:14:03.371Z,58.50
2023-03-27T11:15:03.410Z,56.79
2023-03-27T11:16:03.406Z,58.71
2023-03-27T11:17:03.567Z,59.36
2023-03-27T11:18:03.592Z,59.95
2023-03-27T11:19:04.269Z,64.00
2023-03-27T11:20:10.772Z,63.78
2023-03-27T11:21:04.033Z,63.78
2023-03-27T11:22:03.826Z,62.13
2023-03-27T11:23:03.837Z,66.31
2023-03-27T11:24:04.118Z,70.16
2023-03-27T11:25:04.097Z,67.55
2023-03-27T11:26:04.371Z,70.50
2023-03-27T11:27:04.072Z,69.18
2023-03-27T11:28:04.277Z,69.79
2023-03-27T11:29:04.157Z,71.13
2023-03-27T11:30:04.211Z,66.35
2023-03-27T11:31:11.561Z,66.58
2023-03-27T11:32:04.329Z,65.25
2023-03-27T11:33:04.438Z,66.45
2023-03-27T11:34:04.446Z,63.71
2023-03-27T11:38:48.677Z,66.52
2023-03-27T11:39:49.571Z,65.64
2023-03-27T11:40:49.700Z,63.17
2023-03-27T11:41:50.376Z,67.01
2023-03-27T11:42:49.744Z,70.63
2023-03-27T11:43:49.832Z,68.85
2023-03-27T11:44:50.154Z,68.88
2023-03-27T11:45:50.227Z,70.50
2023-03-27T11:46:50.134Z,70.53
2023-03-27T11:47:56.168Z,67.51
2023-03-27T11:48:50.630Z,68.11
2023-03-27T11:49:51.248Z,67.81
2023-03-27T11:52:44.310Z,68.59
2023-03-27T11:53:45.172Z,68.98
2023-03-27T11:54:46.970Z,68.98
2023-03-27T11:55:45.326Z,68.45
2023-03-27T11:56:45.381Z,66.61
2023-03-27T11:57:45.381Z,67.82
2023-03-27T11:58:45.436Z,69.02
2023-03-27T11:59:45.529Z,66.78
2023-03-27T12:00:45.540Z,70.39
2023-03-27T12:01:45.632Z,66.38
2023-03-27T12:04:39.666Z,67.21
2023-03-27T12:05:40.745Z,67.88
2023-03-27T12:06:40.772Z,67.98
2023-03-27T12:07:46.575Z,65.77
2023-03-27T12:08:40.976Z,64.77
2023-03-27T12:09:40.951Z,66.81
2023-03-27T12:10:41.286Z,68.52
2023-03-27T12:11:41.079Z,64.80
2023-03-27T12:12:41.239Z,70.63
2023-03-27T12:13:42.671Z,69.65
2023-03-27T12:16:35.391Z,69.85
2023-03-27T12:17:36.370Z,66.64
2023-03-27T12:18:36.713Z,70.70
2023-03-27T12:19:38.965Z,67.47
2023-03-27T12:20:43.635Z,69.18
2023-03-27T12:21:36.582Z,65.97
2023-03-27T12:22:36.646Z,67.41
2023-03-27T12:23:36.729Z,69.22
2023-03-27T12:24:36.857Z,67.34
2023-03-27T12:25:37.130Z,69.25
2023-03-27T12:26:36.933Z,66.97
2023-03-27T12:27:37.433Z,68.31
2023-03-27T12:28:38.333Z,68.71
2023-03-27T12:29:37.137Z,70.83
2023-03-27T12:30:37.270Z,71.13
2023-03-27T12:31:37.305Z,68.48
2023-03-27T12:32:40.170Z,70.26
2023-03-27T12:33:40.836Z,70.73
2023-03-27T12:34:39.315Z,69.62
2023-03-27T12:35:37.539Z,68.41
2023-03-27T12:36:37.532Z,68.62
2023-03-27T12:37:37.535Z,70.43
2023-03-27T12:38:37.595Z,68.75
2023-03-27T12:39:37.667Z,71.16
2023-03-27T12:40:37.784Z,72.27
2023-03-27T12:41:37.850Z,67.54
2023-03-27T12:42:43.900Z,69.49
2023-03-27T12:43:37.933Z,72.00
2023-03-27T12:44:38.073Z,70.50
2023-03-27T12:45:47.429Z,71.20
2023-03-27T12:46:38.347Z,72.20
2023-03-27T12:47:38.277Z,70.22
2023-03-27T12:48:38.284Z,68.21
2023-03-27T12:49:46.985Z,71.44
2023-03-27T12:50:38.429Z,67.33
2023-03-27T12:51:38.491Z,67.43
2023-03-27T12:52:38.581Z,71.57
2023-03-27T12:53:38.646Z,70.46
2023-03-27T12:54:38.841Z,74.49
2023-03-27T12:55:38.808Z,71.77
2023-03-27T12:56:38.956Z,73.48
2023-03-27T12:57:39.008Z,72.88
2023-03-27T12:58:38.984Z,72.88
2023-03-27T12:59:39.015Z,72.78
2023-03-27T13:00:39.106Z,79.03
2023-03-27T13:01:51.196Z,73.38
2023-03-27T13:02:39.315Z,75.50
2023-03-27T13:03:39.307Z,74.69
2023-03-27T13:04:39.362Z,72.64
2023-03-27T13:05:39.374Z,71.44
2023-03-27T13:06:39.436Z,72.51
2023-03-27T13:07:39.450Z,72.31
2023-03-27T13:08:39.548Z,74.02
2023-03-27T13:09:39.597Z,73.01
2023-03-27T13:10:39.658Z,70.90
2023-03-27T13:11:39.755Z,70.86
2023-03-27T13:12:39.778Z,70.56
2023-03-27T13:13:39.845Z,73.58
2023-03-27T13:14:39.964Z,69.18
2023-03-27T13:15:40.010Z,72.31
2023-03-27T13:16:40.073Z,73.14
2023-03-27T13:17:40.191Z,71.73
2023-03-27T13:18:40.149Z,73.21
2023-03-27T13:19:40.224Z,68.68
2023-03-27T13:20:40.271Z,70.09
2023-03-27T13:21:40.352Z,73.92
2023-03-27T13:22:40.459Z,70.50
2023-03-27T13:23:40.487Z,68.58
2023-03-27T13:24:40.556Z,69.29
2023-03-27T13:25:40.652Z,70.09
2023-03-27T13:26:40.740Z,71.30
2023-03-27T13:27:40.737Z,69.89
2023-03-27T13:28:40.823Z,74.02
2023-03-27T13:29:40.898Z,68.98
2023-03-27T13:30:40.974Z,71.91
2023-03-27T13:31:41.070Z,71.10
2023-03-27T13:32:41.170Z,72.64
2023-03-27T13:33:41.212Z,70.02
2023-03-27T13:34:41.319Z,69.52
2023-03-27T13:35:41.491Z,70.46
2023-03-27T13:36:41.395Z,69.35
2023-03-27T13:37:41.457Z,73.18
2023-03-27T13:38:41.501Z,69.79
2023-03-27T13:39:41.576Z,68.98
2023-03-27T13:40:41.671Z,72.91
2023-03-27T13:41:41.747Z,73.62
2023-03-27T13:42:41.774Z,69.48
2023-03-27T13:43:41.798Z,69.89
2023-03-27T13:44:41.903Z,73.82
2023-03-27T13:45:41.961Z,72.11
2023-03-27T13:46:42.063Z,75.30
2023-03-27T13:47:42.164Z,75.30
2023-03-27T13:48:42.095Z,76.31
2023-03-27T13:49:42.190Z,75.50
2023-03-27T13:50:42.245Z,69.35
2023-03-27T13:51:42.334Z,74.49
2023-03-27T13:52:42.409Z,75.60
2023-03-27T13:53:42.411Z,74.49
2023-03-27T13:54:42.466Z,74.55
2023-03-27T13:55:42.549Z,73.75
2023-03-27T13:56:42.651Z,74.15
2023-03-27T13:57:42.684Z,73.85
2023-03-27T13:58:42.910Z,74.05
2023-03-27T13:59:42.827Z,75.46
2023-03-27T14:00:42.885Z,74.26
2023-03-27T14:01:43.028Z,74.66
2023-03-27T14:02:43.124Z,77.38
2023-03-27T14:03:43.161Z,74.29
2023-03-27T14:04:43.152Z,72.27
2023-03-27T14:05:43.225Z,72.41
2023-03-27T14:06:43.298Z,76.04
2023-03-27T14:07:43.340Z,71.91
2023-03-27T14:08:43.431Z,74.46
2023-03-27T14:09:43.452Z,71.73
2023-03-27T14:10:43.507Z,73.85
2023-03-27T14:15:25.517Z,75.60
2023-03-27T14:16:26.589Z,74.15
2023-03-27T14:17:26.637Z,74.32
2023-03-27T14:18:26.720Z,75.09
2023-03-27T14:19:26.769Z,72.37
2023-03-27T14:20:26.862Z,72.37
2023-03-27T14:23:20.803Z,73.08
2023-03-27T14:24:21.838Z,73.58
2023-03-27T14:25:21.943Z,71.16
2023-03-27T14:26:22.554Z,70.26
2023-03-27T14:27:22.036Z,70.86
2023-03-27T14:28:22.070Z,70.06
2023-03-27T14:29:22.143Z,69.09
2023-03-27T14:30:22.198Z,71.30
2023-03-27T14:31:22.301Z,70.42
2023-03-27T14:32:22.354Z,69.82
2023-03-27T14:33:22.396Z,71.00
2023-03-27T14:34:22.506Z,70.59
2023-03-27T14:35:22.558Z,69.62
2023-03-27T14:36:22.590Z,72.14
2023-03-27T14:37:22.677Z,70.42
2023-03-27T14:38:22.745Z,73.35
2023-03-27T14:39:22.779Z,75.40
2023-03-27T14:40:22.853Z,72.17
2023-03-27T14:41:22.943Z,72.74
2023-03-27T14:42:23.180Z,76.07
2023-03-27T14:43:23.073Z,73.25
2023-03-27T14:44:23.077Z,76.37
2023-03-27T14:45:23.238Z,73.75
2023-03-27T14:46:23.358Z,74.46
2023-03-27T14:47:23.269Z,75.46
2023-03-27T14:48:23.370Z,74.86
2023-03-27T14:49:24.653Z,74.12
2023-03-27T14:50:23.449Z,73.35
2023-03-27T14:51:23.508Z,70.62
2023-03-27T14:52:23.575Z,72.74
2023-03-27T14:53:23.610Z,74.79
2023-03-27T14:54:23.703Z,74.99
2023-03-27T14:55:23.723Z,75.80
2023-03-27T14:56:24.380Z,75.10
2023-03-27T14:57:23.947Z,77.62
2023-03-27T14:58:23.971Z,75.60
2023-03-27T14:59:23.937Z,74.69
2023-03-27T15:00:24.939Z,74.29
2023-03-27T15:01:24.176Z,75.60
2023-03-27T15:02:24.203Z,73.25
2023-03-27T15:03:24.349Z,74.26
2023-03-27T15:04:24.214Z,76.34
2023-03-27T15:05:24.386Z,72.71
2023-03-27T15:06:24.385Z,72.20
2023-03-27T15:07:24.604Z,73.52
2023-03-27T15:08:24.433Z,72.54
2023-03-27T15:09:24.536Z,74.52
2023-03-27T15:10:24.710Z,71.40
2023-03-27T15:11:24.699Z,73.82
2023-03-27T15:12:24.724Z,74.52
2023-03-27T15:13:25.007Z,73.35
2023-03-27T15:14:24.943Z,73.45
2023-03-27T15:15:24.969Z,74.05
2023-03-27T15:16:25.066Z,76.57
2023-03-27T15:17:25.071Z,76.81
2023-03-27T15:18:25.347Z,75.90
2023-03-27T15:19:25.166Z,69.25
2023-03-27T15:20:25.301Z,75.80
2023-03-27T15:21:25.317Z,76.71
2023-03-27T15:22:25.390Z,74.19
2023-03-27T15:23:25.471Z,76.34
2023-03-27T15:24:25.640Z,76.54
2023-03-27T15:25:25.555Z,71.40
2023-03-27T15:26:25.644Z,75.03
2023-03-27T15:27:25.844Z,72.11
2023-03-27T15:28:25.768Z,74.32
2023-03-27T15:29:25.828Z,72.51
2023-03-27T15:30:25.891Z,76.88
2023-03-27T15:31:26.110Z,74.87
2023-03-27T15:32:26.077Z,75.54
2023-03-27T15:33:26.066Z,74.52
2023-03-27T15:34:26.148Z,74.83
2023-03-27T15:35:26.129Z,73.11
2023-03-27T15:36:26.270Z,72.41
2023-03-27T15:37:30.146Z,74.29
2023-03-27T15:38:29.285Z,75.20
2023-03-27T15:39:30.222Z,73.18
2023-03-27T15:40:29.882Z,75.84
2023-03-27T15:41:31.085Z,76.24
2023-03-27T15:42:26.552Z,73.52
2023-03-27T15:43:26.644Z,76.31
2023-03-27T15:44:26.745Z,75.16
2023-03-27T15:45:26.772Z,69.01
2023-03-27T15:46:26.933Z,75.76
2023-03-27T15:47:27.039Z,73.55
2023-03-27T15:48:26.956Z,70.32
2023-03-27T15:49:27.030Z,74.55
2023-03-27T15:50:27.075Z,71.84
2023-03-27T15:51:27.137Z,74.66
2023-03-27T15:52:27.280Z,70.46
2023-03-27T15:53:27.244Z,74.08
2023-03-27T15:54:27.308Z,72.41
2023-03-27T15:55:27.361Z,72.81
2023-03-27T15:56:27.414Z,69.18
2023-03-27T15:57:27.543Z,73.05
2023-03-27T15:58:27.550Z,74.46
2023-03-27T15:59:27.582Z,74.96
2023-03-27T16:00:28.930Z,72.95
2023-03-27T16:01:27.813Z,72.38
2023-03-27T16:02:27.927Z,75.10
2023-03-27T16:03:27.944Z,72.38
2023-03-27T16:04:27.969Z,74.33
2023-03-27T16:05:28.004Z,74.43
2023-03-27T16:06:28.088Z,74.33
2023-03-27T16:07:28.181Z,74.66
2023-03-27T16:08:28.859Z,75.68
2023-03-27T16:09:28.244Z,74.26
2023-03-27T16:10:28.311Z,75.27
2023-03-27T16:11:28.458Z,75.17
2023-03-27T16:12:28.456Z,75.41
2023-03-27T16:13:28.464Z,76.02
2023-03-27T16:14:28.660Z,75.71
2023-03-27T16:15:28.596Z,75.31
2023-03-27T16:16:28.698Z,75.31
2023-03-27T16:17:28.722Z,74.60
2023-03-27T16:18:28.819Z,76.42
2023-03-27T16:19:28.918Z,75.21
2023-03-27T16:20:28.904Z,74.90
2023-03-27T16:21:28.990Z,74.30
2023-03-27T16:22:29.043Z,74.50
2023-03-27T16:23:29.116Z,73.59
2023-03-27T16:24:29.273Z,73.59
2023-03-27T16:25:29.200Z,74.70
2023-03-27T16:26:29.964Z,73.99
2023-03-27T16:27:29.314Z,74.80
2023-03-27T16:28:29.361Z,74.30
2023-03-27T16:29:29.414Z,73.90
2023-03-27T16:30:29.444Z,75.10
2023-03-27T16:31:29.912Z,74.30
2023-03-27T16:32:29.595Z,75.10
2023-03-27T16:33:29.624Z,76.22
2023-03-27T16:34:29.688Z,75.21
2023-03-27T16:35:29.797Z,76.12
2023-03-27T16:36:29.822Z,74.90
2023-03-27T16:37:30.065Z,75.51
2023-03-27T16:38:30.172Z,75.31
2023-03-27T16:39:30.026Z,75.51
2023-03-27T16:40:30.098Z,75.14
2023-03-27T16:41:30.267Z,74.84
2023-03-27T16:42:30.278Z,75.45
2023-03-27T16:43:30.290Z,75.75
2023-03-27T16:44:30.369Z,76.35
2023-03-27T16:45:30.614Z,75.34
2023-03-27T16:46:30.548Z,76.05
2023-03-27T16:47:30.851Z,75.34
2023-03-27T16:48:30.598Z,75.65
2023-03-27T16:49:30.782Z,75.24
2023-03-27T16:50:30.925Z,75.04
2023-03-27T16:51:31.116Z,75.45
2023-03-27T16:52:32.085Z,76.70
2023-03-27T16:53:31.221Z,75.89
2023-03-27T16:54:31.433Z,76.39
2023-03-27T16:55:31.482Z,75.28
2023-03-27T16:56:31.227Z,75.89
2023-03-27T16:57:31.311Z,76.90
2023-03-27T16:58:31.286Z,76.39
2023-03-27T16:59:31.645Z,75.38
2023-03-27T17:00:31.630Z,78.11
2023-03-27T17:01:31.541Z,77.50
2023-03-27T17:02:34.605Z,75.58
2023-03-27T17:03:36.681Z,75.58
2023-03-27T17:04:31.655Z,76.93
2023-03-27T17:05:32.407Z,77.03
2023-03-27T17:06:32.012Z,77.03
2023-03-27T17:07:31.845Z,76.73
2023-03-27T17:08:31.950Z,76.83
2023-03-27T17:09:31.951Z,76.83
2023-03-27T17:10:32.002Z,77.64
2023-03-27T17:11:33.540Z,77.44
2023-03-27T17:12:32.236Z,78.35
2023-03-27T17:13:32.230Z,77.24
2023-03-27T17:14:32.266Z,76.93
2023-03-27T17:15:34.455Z,76.73
2023-03-27T17:16:37.275Z,77.95
2023-03-27T17:17:37.332Z,77.84
2023-03-27T17:18:34.391Z,77.37
2023-03-27T17:19:32.589Z,77.78
2023-03-27T17:20:32.641Z,78.28
2023-03-27T17:21:32.732Z,77.58
2023-03-27T17:22:32.806Z,77.48
2023-03-27T17:23:32.887Z,76.67
2023-03-27T17:24:38.086Z,78.08
2023-03-27T17:25:32.983Z,77.88
2023-03-27T17:26:33.032Z,77.17
2023-03-27T17:27:33.786Z,77.88
2023-03-27T17:28:33.188Z,77.58
2023-03-27T17:29:33.184Z,77.78
2023-03-27T17:30:40.985Z,79.10
2023-03-27T17:31:33.395Z,76.46
2023-03-27T17:32:33.967Z,77.88
2023-03-27T17:33:33.536Z,77.98
2023-03-27T17:34:33.511Z,77.88
2023-03-27T17:35:33.608Z,78.49
2023-03-27T17:36:42.910Z,77.48
2023-03-27T17:37:33.698Z,77.72
2023-03-27T17:38:33.975Z,77.51
2023-03-27T17:39:33.837Z,78.63
2023-03-27T17:40:34.018Z,78.83
2023-03-27T17:41:33.982Z,78.53
2023-03-27T17:42:34.176Z,78.42
2023-03-27T17:43:34.384Z,78.33
2023-03-27T17:44:34.157Z,78.42
2023-03-27T17:45:34.624Z,78.02
2023-03-27T17:46:34.453Z,79.03
2023-03-27T17:47:34.365Z,78.63
2023-03-27T17:48:34.430Z,78.22
2023-03-27T17:49:34.692Z,77.92
2023-03-27T17:50:34.510Z,77.92
2023-03-27T17:51:34.627Z,77.92
2023-03-27T17:52:34.659Z,79.13
2023-03-27T17:53:34.699Z,78.33
2023-03-27T17:54:34.737Z,79.17
2023-03-27T17:55:34.767Z,78.83
2023-03-27T17:56:34.869Z,79.64
2023-03-27T17:57:34.872Z,78.42
2023-03-27T17:58:34.952Z,78.63
2023-03-27T17:59:34.974Z,78.87
2023-03-27T18:00:35.124Z,79.27
2023-03-27T18:01:35.099Z,78.87
2023-03-27T18:02:35.481Z,78.66
2023-03-27T18:03:35.288Z,77.86
2023-03-27T18:04:35.277Z,78.56
2023-03-27T18:05:35.354Z,78.87
2023-03-27T18:06:35.432Z,77.86
2023-03-27T18:07:35.608Z,79.17
2023-03-27T18:08:35.958Z,78.77
2023-03-27T18:09:35.544Z,77.75
2023-03-27T18:10:35.864Z,77.95
2023-03-27T18:11:36.407Z,78.97
2023-03-27T18:12:36.197Z,78.36
2023-03-27T18:13:36.001Z,78.46
2023-03-27T18:14:35.824Z,77.95
2023-03-27T18:15:36.077Z,79.27
2023-03-27T18:16:36.044Z,78.56
2023-03-27T18:17:36.224Z,78.26
2023-03-27T18:18:36.207Z,78.36
2023-03-27T18:19:36.148Z,79.47
2023-03-27T18:20:36.191Z,79.58
2023-03-27T18:21:36.449Z,78.50
2023-03-27T18:22:36.447Z,78.60
2023-03-27T18:23:36.356Z,78.50